sensor_id;sensor_type;location;lat;lon;timestamp;P1;durP1;ratioP1;P2;durP2;ratioP2
71937;SDS011;59810;48.800;9.086;2023-02-11T00:01:39;24.70;;;9.10;;
71937;SDS011;59810;48.800;9.086;2023-02-11T00:04:06;24.45;;;9.80;;
71937;SDS011;59810;48.800;9.086;2023-02-11T00:06:32;29.00;;;10.80;;
71937;SDS011;59810;48.800;9.086;2023-02-11T00:08:58;28.17;;;10.32;;
71937;SDS011;59810;48.800;9.086;2023-02-11T00:11:25;26.73;;;9.50;;
71937;SDS011;59810;48.800;9.086;2023-02-11T00:14:02;28.98;;;9.98;;
71937;SDS011;59810;48.800;9.086;2023-02-11T00:16:31;27.83;;;10.33;;
71937;SDS011;59810;48.800;9.086;2023-02-11T00:19:00;25.27;;;9.23;;
71937;SDS011;59810;48.800;9.086;2023-02-11T00:21:26;30.90;;;9.85;;
71937;SDS011;59810;48.800;9.086;2023-02-11T00:23:52;30.42;;;10.50;;
71937;SDS011;59810;48.800;9.086;2023-02-11T00:26:25;27.93;;;9.97;;
71937;SDS011;59810;48.800;9.086;2023-02-11T00:28:53;25.48;;;9.95;;
71937;SDS011;59810;48.800;9.086;2023-02-11T00:31:19;27.33;;;10.87;;
71937;SDS011;59810;48.800;9.086;2023-02-11T00:33:46;27.17;;;10.10;;
71937;SDS011;59810;48.800;9.086;2023-02-11T00:36:16;30.80;;;10.60;;
71937;SDS011;59810;48.800;9.086;2023-02-11T00:38:44;24.48;;;9.63;;
71937;SDS011;59810;48.800;9.086;2023-02-11T00:41:12;29.57;;;10.27;;
71937;SDS011;59810;48.800;9.086;2023-02-11T00:43:41;30.08;;;9.75;;
71937;SDS011;59810;48.800;9.086;2023-02-11T00:46:06;29.60;;;10.52;;
71937;SDS011;59810;48.800;9.086;2023-02-11T00:48:33;29.10;;;9.57;;
71937;SDS011;59810;48.800;9.086;2023-02-11T00:50:58;27.97;;;9.43;;
71937;SDS011;59810;48.800;9.086;2023-02-11T00:53:24;30.05;;;10.65;;
71937;SDS011;59810;48.800;9.086;2023-02-11T00:55:49;29.10;;;9.80;;
71937;SDS011;59810;48.800;9.086;2023-02-11T00:58:17;26.43;;;9.80;;
71937;SDS011;59810;48.800;9.086;2023-02-11T01:00:43;25.48;;;9.18;;
71937;SDS011;59810;48.800;9.086;2023-02-11T01:03:08;24.87;;;9.23;;
71937;SDS011;59810;48.800;9.086;2023-02-11T01:05:36;23.73;;;8.77;;
71937;SDS011;59810;48.800;9.086;2023-02-11T01:08:07;23.67;;;8.98;;
71937;SDS011;59810;48.800;9.086;2023-02-11T01:10:35;22.87;;;7.67;;
71937;SDS011;59810;48.800;9.086;2023-02-11T01:13:00;25.33;;;8.85;;
71937;SDS011;59810;48.800;9.086;2023-02-11T01:15:26;20.33;;;8.17;;
71937;SDS011;59810;48.800;9.086;2023-02-11T01:17:52;23.80;;;8.18;;
71937;SDS011;59810;48.800;9.086;2023-02-11T01:20:22;20.60;;;8.50;;
71937;SDS011;59810;48.800;9.086;2023-02-11T01:22:49;19.25;;;7.57;;
71937;SDS011;59810;48.800;9.086;2023-02-11T01:25:16;19.90;;;7.85;;
71937;SDS011;59810;48.800;9.086;2023-02-11T01:27:42;24.50;;;8.07;;
71937;SDS011;59810;48.800;9.086;2023-02-11T01:30:08;18.43;;;8.00;;
71937;SDS011;59810;48.800;9.086;2023-02-11T01:32:38;21.45;;;7.32;;
71937;SDS011;59810;48.800;9.086;2023-02-11T01:35:04;21.13;;;7.72;;
71937;SDS011;59810;48.800;9.086;2023-02-11T01:37:31;22.40;;;8.03;;
71937;SDS011;59810;48.800;9.086;2023-02-11T01:39:58;28.13;;;8.43;;
71937;SDS011;59810;48.800;9.086;2023-02-11T01:42:23;22.00;;;8.40;;
71937;SDS011;59810;48.800;9.086;2023-02-11T01:44:53;24.05;;;7.85;;
71937;SDS011;59810;48.800;9.086;2023-02-11T01:47:19;22.10;;;7.68;;
71937;SDS011;59810;48.800;9.086;2023-02-11T01:49:51;20.98;;;7.90;;
71937;SDS011;59810;48.800;9.086;2023-02-11T01:52:26;23.43;;;8.43;;
71937;SDS011;59810;48.800;9.086;2023-02-11T01:55:00;23.88;;;8.27;;
71937;SDS011;59810;48.800;9.086;2023-02-11T01:57:48;23.25;;;8.32;;
71937;SDS011;59810;48.800;9.086;2023-02-11T02:00:34;22.63;;;9.15;;
71937;SDS011;59810;48.800;9.086;2023-02-11T02:03:04;24.50;;;8.95;;
71937;SDS011;59810;48.800;9.086;2023-02-11T02:05:35;25.97;;;8.73;;
71937;SDS011;59810;48.800;9.086;2023-02-11T02:08:06;21.95;;;8.15;;
71937;SDS011;59810;48.800;9.086;2023-02-11T02:10:52;24.02;;;8.10;;
71937;SDS011;59810;48.800;9.086;2023-02-11T02:13:20;21.40;;;8.52;;
71937;SDS011;59810;48.800;9.086;2023-02-11T02:15:56;27.13;;;9.23;;
71937;SDS011;59810;48.800;9.086;2023-02-11T02:34:52;23.58;;;8.40;;
71937;SDS011;59810;48.800;9.086;2023-02-11T02:37:40;22.65;;;9.23;;
71937;SDS011;59810;48.800;9.086;2023-02-11T02:40:30;28.73;;;9.70;;
71937;SDS011;59810;48.800;9.086;2023-02-11T02:43:00;28.83;;;9.73;;
71937;SDS011;59810;48.800;9.086;2023-02-11T02:45:27;27.37;;;10.17;;
71937;SDS011;59810;48.800;9.086;2023-02-11T02:47:53;29.95;;;10.55;;
71937;SDS011;59810;48.800;9.086;2023-02-11T02:50:22;27.67;;;10.57;;
71937;SDS011;59810;48.800;9.086;2023-02-11T02:53:06;28.50;;;10.50;;
71937;SDS011;59810;48.800;9.086;2023-02-11T02:55:55;25.02;;;10.32;;
71937;SDS011;59810;48.800;9.086;2023-02-11T03:01:29;34.13;;;11.00;;
71937;SDS011;59810;48.800;9.086;2023-02-11T03:09:55;28.00;;;10.98;;
71937;SDS011;59810;48.800;9.086;2023-02-11T03:12:43;32.00;;;10.80;;
71937;SDS011;59810;48.800;9.086;2023-02-11T03:15:11;28.55;;;11.02;;
71937;SDS011;59810;48.800;9.086;2023-02-11T03:17:40;28.52;;;10.90;;
71937;SDS011;59810;48.800;9.086;2023-02-11T03:20:10;26.40;;;9.97;;
71937;SDS011;59810;48.800;9.086;2023-02-11T03:22:40;26.60;;;9.48;;
71937;SDS011;59810;48.800;9.086;2023-02-11T03:25:10;26.00;;;9.27;;
71937;SDS011;59810;48.800;9.086;2023-02-11T03:30:20;27.95;;;10.45;;
71937;SDS011;59810;48.800;9.086;2023-02-11T03:36:05;23.48;;;8.90;;
71937;SDS011;59810;48.800;9.086;2023-02-11T03:38:41;28.02;;;10.18;;
71937;SDS011;59810;48.800;9.086;2023-02-11T03:41:10;23.60;;;9.37;;
71937;SDS011;59810;48.800;9.086;2023-02-11T03:43:41;24.42;;;8.43;;
71937;SDS011;59810;48.800;9.086;2023-02-11T03:46:15;24.05;;;9.38;;
71937;SDS011;59810;48.800;9.086;2023-02-11T03:48:44;26.27;;;10.07;;
71937;SDS011;59810;48.800;9.086;2023-02-11T03:51:13;30.02;;;11.07;;
71937;SDS011;59810;48.800;9.086;2023-02-11T03:53:40;23.60;;;9.17;;
71937;SDS011;59810;48.800;9.086;2023-02-11T03:56:09;26.08;;;9.10;;
71937;SDS011;59810;48.800;9.086;2023-02-11T03:58:39;21.95;;;9.38;;
71937;SDS011;59810;48.800;9.086;2023-02-11T04:01:05;23.70;;;9.03;;
71937;SDS011;59810;48.800;9.086;2023-02-11T04:03:32;25.10;;;9.68;;
71937;SDS011;59810;48.800;9.086;2023-02-11T04:05:58;26.47;;;9.30;;
71937;SDS011;59810;48.800;9.086;2023-02-11T04:08:23;23.37;;;9.03;;
71937;SDS011;59810;48.800;9.086;2023-02-11T04:10:48;25.10;;;9.13;;
71937;SDS011;59810;48.800;9.086;2023-02-11T04:13:13;23.10;;;9.97;;
71937;SDS011;59810;48.800;9.086;2023-02-11T04:15:39;24.97;;;9.87;;
71937;SDS011;59810;48.800;9.086;2023-02-11T04:18:04;28.97;;;10.30;;
71937;SDS011;59810;48.800;9.086;2023-02-11T04:20:30;31.37;;;10.90;;
71937;SDS011;59810;48.800;9.086;2023-02-11T04:22:57;29.48;;;11.13;;
71937;SDS011;59810;48.800;9.086;2023-02-11T04:25:23;31.47;;;10.67;;
71937;SDS011;59810;48.800;9.086;2023-02-11T04:27:49;32.50;;;10.48;;
71937;SDS011;59810;48.800;9.086;2023-02-11T04:30:15;25.83;;;10.23;;
71937;SDS011;59810;48.800;9.086;2023-02-11T04:32:40;29.50;;;11.37;;
71937;SDS011;59810;48.800;9.086;2023-02-11T04:35:05;30.67;;;10.97;;
71937;SDS011;59810;48.800;9.086;2023-02-11T04:37:31;28.27;;;10.73;;
71937;SDS011;59810;48.800;9.086;2023-02-11T04:39:56;27.10;;;11.23;;
71937;SDS011;59810;48.800;9.086;2023-02-11T04:42:22;23.50;;;9.98;;
71937;SDS011;59810;48.800;9.086;2023-02-11T04:44:47;24.77;;;10.27;;
71937;SDS011;59810;48.800;9.086;2023-02-11T04:47:13;26.60;;;10.33;;
71937;SDS011;59810;48.800;9.086;2023-02-11T04:49:39;27.17;;;10.45;;
71937;SDS011;59810;48.800;9.086;2023-02-11T04:52:05;26.00;;;10.13;;
71937;SDS011;59810;48.800;9.086;2023-02-11T04:54:30;24.77;;;10.13;;
71937;SDS011;59810;48.800;9.086;2023-02-11T04:56:55;29.87;;;10.67;;
71937;SDS011;59810;48.800;9.086;2023-02-11T04:59:21;26.87;;;10.40;;
71937;SDS011;59810;48.800;9.086;2023-02-11T05:01:46;25.87;;;10.60;;
71937;SDS011;59810;48.800;9.086;2023-02-11T05:04:11;24.40;;;10.00;;
71937;SDS011;59810;48.800;9.086;2023-02-11T05:06:38;25.20;;;9.88;;
71937;SDS011;59810;48.800;9.086;2023-02-11T05:09:03;24.40;;;9.50;;
71937;SDS011;59810;48.800;9.086;2023-02-11T05:11:29;24.35;;;8.75;;
71937;SDS011;59810;48.800;9.086;2023-02-11T05:13:54;24.07;;;8.70;;
71937;SDS011;59810;48.800;9.086;2023-02-11T05:16:20;26.13;;;9.30;;
71937;SDS011;59810;48.800;9.086;2023-02-11T05:18:45;23.13;;;9.77;;
71937;SDS011;59810;48.800;9.086;2023-02-11T05:21:12;24.60;;;8.73;;
71937;SDS011;59810;48.800;9.086;2023-02-11T05:23:39;24.73;;;9.53;;
71937;SDS011;59810;48.800;9.086;2023-02-11T05:26:05;21.20;;;8.27;;
71937;SDS011;59810;48.800;9.086;2023-02-11T05:28:32;23.25;;;8.48;;
71937;SDS011;59810;48.800;9.086;2023-02-11T05:30:57;24.07;;;9.60;;
71937;SDS011;59810;48.800;9.086;2023-02-11T05:33:23;21.87;;;8.57;;
71937;SDS011;59810;48.800;9.086;2023-02-11T05:35:48;19.40;;;8.75;;
71937;SDS011;59810;48.800;9.086;2023-02-11T05:38:14;20.87;;;8.37;;
71937;SDS011;59810;48.800;9.086;2023-02-11T05:40:39;20.00;;;8.67;;
71937;SDS011;59810;48.800;9.086;2023-02-11T05:43:05;22.70;;;8.27;;
71937;SDS011;59810;48.800;9.086;2023-02-11T05:45:30;22.67;;;9.00;;
71937;SDS011;59810;48.800;9.086;2023-02-11T05:47:56;21.50;;;9.23;;
71937;SDS011;59810;48.800;9.086;2023-02-11T05:50:21;20.85;;;8.30;;
71937;SDS011;59810;48.800;9.086;2023-02-11T05:52:47;21.87;;;9.77;;
71937;SDS011;59810;48.800;9.086;2023-02-11T05:55:12;21.63;;;8.57;;
71937;SDS011;59810;48.800;9.086;2023-02-11T05:57:40;23.58;;;8.48;;
71937;SDS011;59810;48.800;9.086;2023-02-11T06:00:06;22.90;;;8.40;;
71937;SDS011;59810;48.800;9.086;2023-02-11T06:02:32;21.85;;;7.90;;
71937;SDS011;59810;48.800;9.086;2023-02-11T06:04:57;20.43;;;8.60;;
71937;SDS011;59810;48.800;9.086;2023-02-11T06:07:23;20.75;;;8.18;;
71937;SDS011;59810;48.800;9.086;2023-02-11T06:09:48;25.43;;;9.33;;
71937;SDS011;59810;48.800;9.086;2023-02-11T06:12:13;23.80;;;10.57;;
71937;SDS011;59810;48.800;9.086;2023-02-11T06:14:39;25.70;;;10.20;;
71937;SDS011;59810;48.800;9.086;2023-02-11T06:17:04;28.97;;;11.30;;
71937;SDS011;59810;48.800;9.086;2023-02-11T06:19:29;25.23;;;9.60;;
71937;SDS011;59810;48.800;9.086;2023-02-11T06:21:55;25.50;;;10.10;;
71937;SDS011;59810;48.800;9.086;2023-02-11T06:24:21;23.58;;;9.32;;
71937;SDS011;59810;48.800;9.086;2023-02-11T06:26:50;25.33;;;9.90;;
71937;SDS011;59810;48.800;9.086;2023-02-11T06:29:15;23.30;;;9.30;;
71937;SDS011;59810;48.800;9.086;2023-02-11T06:31:40;24.87;;;10.27;;
71937;SDS011;59810;48.800;9.086;2023-02-11T06:34:06;24.98;;;9.80;;
71937;SDS011;59810;48.800;9.086;2023-02-11T06:36:33;22.43;;;9.60;;
71937;SDS011;59810;48.800;9.086;2023-02-11T06:38:59;27.38;;;10.90;;
71937;SDS011;59810;48.800;9.086;2023-02-11T06:41:24;26.60;;;10.97;;
71937;SDS011;59810;48.800;9.086;2023-02-11T06:43:53;25.30;;;10.85;;
71937;SDS011;59810;48.800;9.086;2023-02-11T06:46:18;24.70;;;10.33;;
71937;SDS011;59810;48.800;9.086;2023-02-11T06:48:43;23.53;;;9.40;;
71937;SDS011;59810;48.800;9.086;2023-02-11T06:51:10;23.15;;;9.82;;
71937;SDS011;59810;48.800;9.086;2023-02-11T06:53:38;22.33;;;9.40;;
71937;SDS011;59810;48.800;9.086;2023-02-11T06:56:06;23.52;;;9.95;;
71937;SDS011;59810;48.800;9.086;2023-02-11T06:58:32;25.05;;;10.25;;
71937;SDS011;59810;48.800;9.086;2023-02-11T07:00:58;22.57;;;9.20;;
71937;SDS011;59810;48.800;9.086;2023-02-11T07:03:24;22.08;;;9.80;;
71937;SDS011;59810;48.800;9.086;2023-02-11T07:05:49;28.70;;;10.80;;
71937;SDS011;59810;48.800;9.086;2023-02-11T07:08:15;26.13;;;10.17;;
71937;SDS011;59810;48.800;9.086;2023-02-11T07:10:40;26.80;;;10.40;;
71937;SDS011;59810;48.800;9.086;2023-02-11T07:13:05;24.60;;;10.15;;
71937;SDS011;59810;48.800;9.086;2023-02-11T07:15:31;23.17;;;9.67;;
71937;SDS011;59810;48.800;9.086;2023-02-11T07:17:56;20.83;;;9.10;;
71937;SDS011;59810;48.800;9.086;2023-02-11T07:20:24;21.10;;;9.27;;
71937;SDS011;59810;48.800;9.086;2023-02-11T07:22:50;19.40;;;9.02;;
71937;SDS011;59810;48.800;9.086;2023-02-11T07:25:15;21.07;;;9.00;;
71937;SDS011;59810;48.800;9.086;2023-02-11T07:27:40;24.63;;;8.50;;
71937;SDS011;59810;48.800;9.086;2023-02-11T07:30:06;21.07;;;8.70;;
71937;SDS011;59810;48.800;9.086;2023-02-11T07:32:32;19.77;;;8.95;;
71937;SDS011;59810;48.800;9.086;2023-02-11T07:34:57;23.87;;;11.63;;
71937;SDS011;59810;48.800;9.086;2023-02-11T07:37:22;28.77;;;12.17;;
71937;SDS011;59810;48.800;9.086;2023-02-11T07:39:47;32.33;;;12.60;;
71937;SDS011;59810;48.800;9.086;2023-02-11T07:42:15;27.50;;;10.98;;
71937;SDS011;59810;48.800;9.086;2023-02-11T07:44:40;25.33;;;11.07;;
71937;SDS011;59810;48.800;9.086;2023-02-11T07:47:05;34.40;;;13.30;;
71937;SDS011;59810;48.800;9.086;2023-02-11T07:49:31;30.40;;;13.43;;
71937;SDS011;59810;48.800;9.086;2023-02-11T07:51:56;30.20;;;14.83;;
71937;SDS011;59810;48.800;9.086;2023-02-11T07:54:21;28.97;;;13.20;;
71937;SDS011;59810;48.800;9.086;2023-02-11T07:56:49;36.90;;;15.63;;
71937;SDS011;59810;48.800;9.086;2023-02-11T07:59:17;32.43;;;14.17;;
71937;SDS011;59810;48.800;9.086;2023-02-11T08:01:45;33.75;;;15.63;;
71937;SDS011;59810;48.800;9.086;2023-02-11T08:04:12;34.35;;;15.02;;
71937;SDS011;59810;48.800;9.086;2023-02-11T08:06:39;31.47;;;14.77;;
71937;SDS011;59810;48.800;9.086;2023-02-11T08:09:10;31.48;;;14.60;;
71937;SDS011;59810;48.800;9.086;2023-02-11T08:11:39;31.88;;;13.95;;
71937;SDS011;59810;48.800;9.086;2023-02-11T08:14:05;34.43;;;15.13;;
71937;SDS011;59810;48.800;9.086;2023-02-11T08:16:31;35.03;;;14.00;;
71937;SDS011;59810;48.800;9.086;2023-02-11T08:18:59;32.10;;;14.30;;
71937;SDS011;59810;48.800;9.086;2023-02-11T08:21:26;25.55;;;12.38;;
71937;SDS011;59810;48.800;9.086;2023-02-11T08:23:52;22.47;;;10.80;;
71937;SDS011;59810;48.800;9.086;2023-02-11T08:26:19;25.73;;;11.35;;
71937;SDS011;59810;48.800;9.086;2023-02-11T08:28:50;21.58;;;10.05;;
71937;SDS011;59810;48.800;9.086;2023-02-11T08:31:21;24.10;;;10.48;;
71937;SDS011;59810;48.800;9.086;2023-02-11T08:33:49;24.57;;;11.67;;
71937;SDS011;59810;48.800;9.086;2023-02-11T08:36:16;27.02;;;12.00;;
71937;SDS011;59810;48.800;9.086;2023-02-11T08:38:47;32.40;;;14.80;;
71937;SDS011;59810;48.800;9.086;2023-02-11T08:41:15;29.67;;;13.13;;
71937;SDS011;59810;48.800;9.086;2023-02-11T08:43:41;25.83;;;12.20;;
71937;SDS011;59810;48.800;9.086;2023-02-11T08:46:08;25.55;;;12.13;;
71937;SDS011;59810;48.800;9.086;2023-02-11T08:48:36;20.77;;;9.73;;
71937;SDS011;59810;48.800;9.086;2023-02-11T08:51:05;23.20;;;9.83;;
71937;SDS011;59810;48.800;9.086;2023-02-11T08:53:36;23.27;;;10.00;;
71937;SDS011;59810;48.800;9.086;2023-02-11T08:56:02;22.57;;;10.50;;
71937;SDS011;59810;48.800;9.086;2023-02-11T08:58:27;20.33;;;8.93;;
71937;SDS011;59810;48.800;9.086;2023-02-11T09:00:52;23.48;;;8.70;;
71937;SDS011;59810;48.800;9.086;2023-02-11T09:03:18;23.00;;;10.40;;
71937;SDS011;59810;48.800;9.086;2023-02-11T09:05:44;16.77;;;7.53;;
71937;SDS011;59810;48.800;9.086;2023-02-11T09:08:12;27.92;;;10.57;;
71937;SDS011;59810;48.800;9.086;2023-02-11T09:10:41;27.93;;;11.30;;
71937;SDS011;59810;48.800;9.086;2023-02-11T09:13:07;25.17;;;11.00;;
71937;SDS011;59810;48.800;9.086;2023-02-11T09:15:33;20.25;;;9.60;;
71937;SDS011;59810;48.800;9.086;2023-02-11T09:17:59;19.42;;;7.93;;
71937;SDS011;59810;48.800;9.086;2023-02-11T09:20:27;19.20;;;8.83;;
71937;SDS011;59810;48.800;9.086;2023-02-11T09:22:55;18.00;;;8.20;;
71937;SDS011;59810;48.800;9.086;2023-02-11T09:25:26;15.57;;;6.03;;
71937;SDS011;59810;48.800;9.086;2023-02-11T09:27:51;12.50;;;5.20;;
71937;SDS011;59810;48.800;9.086;2023-02-11T09:30:17;9.50;;;4.07;;
71937;SDS011;59810;48.800;9.086;2023-02-11T09:32:43;8.02;;;2.72;;
71937;SDS011;59810;48.800;9.086;2023-02-11T09:35:09;8.60;;;3.57;;
71937;SDS011;59810;48.800;9.086;2023-02-11T09:37:39;9.55;;;3.60;;
71937;SDS011;59810;48.800;9.086;2023-02-11T09:40:05;9.35;;;3.33;;
71937;SDS011;59810;48.800;9.086;2023-02-11T09:42:50;8.90;;;3.03;;
71937;SDS011;59810;48.800;9.086;2023-02-11T09:45:21;8.95;;;3.58;;
71937;SDS011;59810;48.800;9.086;2023-02-11T09:47:59;5.70;;;2.30;;
71937;SDS011;59810;48.800;9.086;2023-02-11T09:50:33;6.18;;;2.60;;
71937;SDS011;59810;48.800;9.086;2023-02-11T09:53:09;10.70;;;3.35;;
71937;SDS011;59810;48.800;9.086;2023-02-11T09:55:41;7.60;;;2.57;;
71937;SDS011;59810;48.800;9.086;2023-02-11T09:58:15;6.72;;;2.65;;
71937;SDS011;59810;48.800;9.086;2023-02-11T10:03:51;7.60;;;2.78;;
71937;SDS011;59810;48.800;9.086;2023-02-11T10:14:53;8.05;;;3.42;;
71937;SDS011;59810;48.800;9.086;2023-02-11T10:22:58;8.53;;;3.10;;
71937;SDS011;59810;48.800;9.086;2023-02-11T10:25:37;9.32;;;3.80;;
71937;SDS011;59810;48.800;9.086;2023-02-11T10:28:12;7.97;;;3.28;;
71937;SDS011;59810;48.800;9.086;2023-02-11T10:31:01;9.82;;;3.95;;
71937;SDS011;59810;48.800;9.086;2023-02-11T10:36:05;8.20;;;3.63;;
71937;SDS011;59810;48.800;9.086;2023-02-11T10:38:30;9.55;;;3.95;;
71937;SDS011;59810;48.800;9.086;2023-02-11T10:40:57;7.65;;;3.10;;
71937;SDS011;59810;48.800;9.086;2023-02-11T10:43:25;9.53;;;3.73;;
71937;SDS011;59810;48.800;9.086;2023-02-11T10:45:54;8.20;;;3.60;;
71937;SDS011;59810;48.800;9.086;2023-02-11T10:51:14;13.48;;;3.95;;
71937;SDS011;59810;48.800;9.086;2023-02-11T10:53:43;9.68;;;4.63;;
71937;SDS011;59810;48.800;9.086;2023-02-11T10:56:18;10.60;;;4.50;;
71937;SDS011;59810;48.800;9.086;2023-02-11T10:58:55;9.65;;;4.60;;
71937;SDS011;59810;48.800;9.086;2023-02-11T11:01:36;10.07;;;3.75;;
71937;SDS011;59810;48.800;9.086;2023-02-11T11:04:06;9.85;;;3.83;;
71937;SDS011;59810;48.800;9.086;2023-02-11T11:06:52;6.82;;;3.10;;
71937;SDS011;59810;48.800;9.086;2023-02-11T11:09:27;8.77;;;3.37;;
71937;SDS011;59810;48.800;9.086;2023-02-11T11:11:57;8.50;;;3.50;;
71937;SDS011;59810;48.800;9.086;2023-02-11T11:14:22;8.73;;;2.53;;
71937;SDS011;59810;48.800;9.086;2023-02-11T11:16:53;8.33;;;3.30;;
71937;SDS011;59810;48.800;9.086;2023-02-11T11:19:20;8.38;;;3.30;;
71937;SDS011;59810;48.800;9.086;2023-02-11T11:21:48;8.40;;;3.67;;
71937;SDS011;59810;48.800;9.086;2023-02-11T11:26:44;9.27;;;3.95;;
71937;SDS011;59810;48.800;9.086;2023-02-11T11:29:14;9.67;;;3.47;;
71937;SDS011;59810;48.800;9.086;2023-02-11T11:34:17;11.93;;;4.22;;
71937;SDS011;59810;48.800;9.086;2023-02-11T11:36:47;8.63;;;3.70;;
71937;SDS011;59810;48.800;9.086;2023-02-11T11:39:19;10.27;;;3.50;;
71937;SDS011;59810;48.800;9.086;2023-02-11T11:41:51;10.17;;;3.80;;
71937;SDS011;59810;48.800;9.086;2023-02-11T11:47:29;10.25;;;4.15;;
71937;SDS011;59810;48.800;9.086;2023-02-11T11:50:09;9.43;;;3.53;;
71937;SDS011;59810;48.800;9.086;2023-02-11T11:52:53;9.18;;;3.85;;
71937;SDS011;59810;48.800;9.086;2023-02-11T11:58:15;11.02;;;3.80;;
71937;SDS011;59810;48.800;9.086;2023-02-11T12:03:25;8.27;;;3.47;;
71937;SDS011;59810;48.800;9.086;2023-02-11T12:17:05;9.18;;;4.55;;
71937;SDS011;59810;48.800;9.086;2023-02-11T12:19:45;11.07;;;4.70;;
71937;SDS011;59810;48.800;9.086;2023-02-11T12:22:37;8.87;;;4.23;;
71937;SDS011;59810;48.800;9.086;2023-02-11T12:38:40;11.02;;;4.50;;
71937;SDS011;59810;48.800;9.086;2023-02-11T12:41:30;9.20;;;4.18;;
71937;SDS011;59810;48.800;9.086;2023-02-11T12:44:28;9.50;;;4.00;;
71937;SDS011;59810;48.800;9.086;2023-02-11T12:47:13;10.40;;;4.10;;
71937;SDS011;59810;48.800;9.086;2023-02-11T12:52:41;9.05;;;3.70;;
71937;SDS011;59810;48.800;9.086;2023-02-11T12:55:24;10.48;;;4.53;;
71937;SDS011;59810;48.800;9.086;2023-02-11T12:57:53;13.32;;;5.45;;
71937;SDS011;59810;48.800;9.086;2023-02-11T13:00:22;9.93;;;4.18;;
71937;SDS011;59810;48.800;9.086;2023-02-11T13:05:41;9.98;;;4.35;;
71937;SDS011;59810;48.800;9.086;2023-02-11T13:08:14;10.73;;;4.45;;
71937;SDS011;59810;48.800;9.086;2023-02-11T13:10:41;13.85;;;5.05;;
71937;SDS011;59810;48.800;9.086;2023-02-11T13:13:18;10.48;;;4.72;;
71937;SDS011;59810;48.800;9.086;2023-02-11T13:15:53;11.77;;;5.63;;
71937;SDS011;59810;48.800;9.086;2023-02-11T13:32:10;22.08;;;9.02;;
71937;SDS011;59810;48.800;9.086;2023-02-11T13:37:05;18.88;;;8.68;;
71937;SDS011;59810;48.800;9.086;2023-02-11T13:39:50;19.23;;;9.10;;
71937;SDS011;59810;48.800;9.086;2023-02-11T13:42:25;19.53;;;9.87;;
71937;SDS011;59810;48.800;9.086;2023-02-11T13:44:51;19.55;;;8.45;;
71937;SDS011;59810;48.800;9.086;2023-02-11T13:49:55;23.35;;;9.30;;
71937;SDS011;59810;48.800;9.086;2023-02-11T13:52:25;21.50;;;9.73;;
71937;SDS011;59810;48.800;9.086;2023-02-11T13:55:01;21.37;;;9.40;;
71937;SDS011;59810;48.800;9.086;2023-02-11T14:00:41;18.48;;;9.48;;
71937;SDS011;59810;48.800;9.086;2023-02-11T14:22:01;19.67;;;8.20;;
71937;SDS011;59810;48.800;9.086;2023-02-11T14:24:52;18.15;;;8.55;;
71937;SDS011;59810;48.800;9.086;2023-02-11T14:41:25;14.00;;;7.05;;
71937;SDS011;59810;48.800;9.086;2023-02-11T14:43:59;15.32;;;7.70;;
71937;SDS011;59810;48.800;9.086;2023-02-11T14:46:30;16.03;;;7.07;;
71937;SDS011;59810;48.800;9.086;2023-02-11T14:49:00;16.17;;;7.55;;
71937;SDS011;59810;48.800;9.086;2023-02-11T14:51:28;18.90;;;7.90;;
71937;SDS011;59810;48.800;9.086;2023-02-11T14:54:06;17.23;;;7.32;;
71937;SDS011;59810;48.800;9.086;2023-02-11T14:57:04;17.65;;;7.88;;
71937;SDS011;59810;48.800;9.086;2023-02-11T14:59:36;18.90;;;7.60;;
71937;SDS011;59810;48.800;9.086;2023-02-11T15:02:01;17.73;;;8.93;;
71937;SDS011;59810;48.800;9.086;2023-02-11T15:04:28;18.83;;;8.73;;
71937;SDS011;59810;48.800;9.086;2023-02-11T15:06:56;17.98;;;9.07;;
71937;SDS011;59810;48.800;9.086;2023-02-11T15:09:32;20.42;;;9.95;;
71937;SDS011;59810;48.800;9.086;2023-02-11T15:12:02;17.53;;;8.73;;
71937;SDS011;59810;48.800;9.086;2023-02-11T15:14:31;18.35;;;9.02;;
71937;SDS011;59810;48.800;9.086;2023-02-11T15:17:00;21.33;;;9.98;;
71937;SDS011;59810;48.800;9.086;2023-02-11T15:19:28;17.93;;;8.70;;
71937;SDS011;59810;48.800;9.086;2023-02-11T15:21:57;21.65;;;9.98;;
71937;SDS011;59810;48.800;9.086;2023-02-11T15:24:24;20.10;;;8.90;;
71937;SDS011;59810;48.800;9.086;2023-02-11T15:26:57;19.65;;;10.13;;
71937;SDS011;59810;48.800;9.086;2023-02-11T15:29:27;19.98;;;9.65;;
71937;SDS011;59810;48.800;9.086;2023-02-11T15:34:36;18.13;;;9.00;;
71937;SDS011;59810;48.800;9.086;2023-02-11T15:37:04;22.83;;;9.93;;
71937;SDS011;59810;48.800;9.086;2023-02-11T15:39:36;22.42;;;9.27;;
71937;SDS011;59810;48.800;9.086;2023-02-11T15:44:45;17.53;;;9.10;;
71937;SDS011;59810;48.800;9.086;2023-02-11T15:47:11;22.13;;;10.25;;
71937;SDS011;59810;48.800;9.086;2023-02-11T15:49:44;23.08;;;9.90;;
71937;SDS011;59810;48.800;9.086;2023-02-11T15:52:11;20.38;;;9.07;;
71937;SDS011;59810;48.800;9.086;2023-02-11T15:54:38;21.27;;;9.93;;
71937;SDS011;59810;48.800;9.086;2023-02-11T15:57:11;22.10;;;9.60;;
71937;SDS011;59810;48.800;9.086;2023-02-11T15:59:38;20.02;;;9.98;;
71937;SDS011;59810;48.800;9.086;2023-02-11T16:04:50;16.27;;;8.73;;
71937;SDS011;59810;48.800;9.086;2023-02-11T16:17:59;23.13;;;9.73;;
71937;SDS011;59810;48.800;9.086;2023-02-11T16:20:26;22.27;;;9.95;;
71937;SDS011;59810;48.800;9.086;2023-02-11T16:22:52;20.47;;;9.70;;
71937;SDS011;59810;48.800;9.086;2023-02-11T16:25:20;22.48;;;10.02;;
71937;SDS011;59810;48.800;9.086;2023-02-11T16:27:50;23.08;;;10.27;;
71937;SDS011;59810;48.800;9.086;2023-02-11T16:33:01;22.65;;;10.13;;
71937;SDS011;59810;48.800;9.086;2023-02-11T16:35:28;20.83;;;10.35;;
71937;SDS011;59810;48.800;9.086;2023-02-11T16:37:53;22.80;;;10.23;;
71937;SDS011;59810;48.800;9.086;2023-02-11T16:40:19;23.50;;;10.83;;
71937;SDS011;59810;48.800;9.086;2023-02-11T16:42:47;23.13;;;10.70;;
71937;SDS011;59810;48.800;9.086;2023-02-11T16:45:15;20.45;;;10.60;;
71937;SDS011;59810;48.800;9.086;2023-02-11T16:47:41;22.23;;;10.50;;
71937;SDS011;59810;48.800;9.086;2023-02-11T16:50:08;23.40;;;11.25;;
71937;SDS011;59810;48.800;9.086;2023-02-11T16:52:36;23.17;;;11.45;;
71937;SDS011;59810;48.800;9.086;2023-02-11T16:55:04;24.90;;;11.53;;
71937;SDS011;59810;48.800;9.086;2023-02-11T16:57:33;24.17;;;11.40;;
71937;SDS011;59810;48.800;9.086;2023-02-11T16:59:58;22.13;;;11.03;;
71937;SDS011;59810;48.800;9.086;2023-02-11T17:04:59;25.45;;;11.65;;
71937;SDS011;59810;48.800;9.086;2023-02-11T17:07:27;24.77;;;11.35;;
71937;SDS011;59810;48.800;9.086;2023-02-11T17:09:52;23.93;;;11.80;;
71937;SDS011;59810;48.800;9.086;2023-02-11T17:12:18;26.33;;;11.90;;
71937;SDS011;59810;48.800;9.086;2023-02-11T17:14:49;25.05;;;12.60;;
71937;SDS011;59810;48.800;9.086;2023-02-11T17:17:14;31.48;;;12.32;;
71937;SDS011;59810;48.800;9.086;2023-02-11T17:19:40;32.60;;;11.70;;
71937;SDS011;59810;48.800;9.086;2023-02-11T17:22:05;24.73;;;11.83;;
71937;SDS011;59810;48.800;9.086;2023-02-11T17:24:30;22.73;;;11.80;;
71937;SDS011;59810;48.800;9.086;2023-02-11T17:26:56;24.87;;;12.13;;
71937;SDS011;59810;48.800;9.086;2023-02-11T17:29:24;26.33;;;12.82;;
71937;SDS011;59810;48.800;9.086;2023-02-11T17:31:50;28.70;;;13.53;;
71937;SDS011;59810;48.800;9.086;2023-02-11T17:34:17;29.57;;;14.50;;
71937;SDS011;59810;48.800;9.086;2023-02-11T17:36:43;31.33;;;13.82;;
71937;SDS011;59810;48.800;9.086;2023-02-11T17:39:08;31.33;;;14.05;;